createdAt,value
2019-01-06T00:04:36.795Z,-4.14
2019-01-06T00:09:51.675Z,-4.42
2019-01-06T00:15:28.170Z,-4.13
2019-01-06T00:20:46.792Z,-4.09
2019-01-06T00:26:05.282Z,-4.37
2019-01-06T00:31:16.556Z,-4.50
2019-01-06T00:36:31.946Z,-4.56
2019-01-06T00:41:59.136Z,-4.73
2019-01-06T00:47:14.265Z,-4.59
2019-01-06T00:52:23.538Z,-4.86
2019-01-06T00:57:45.054Z,-4.61
2019-01-06T01:03:09.405Z,-4.60
2019-01-06T01:08:18.918Z,-4.70
2019-01-06T01:13:28.931Z,-5.06
2019-01-06T01:18:50.220Z,-4.79
2019-01-06T01:23:58.683Z,-4.79
2019-01-06T01:29:07.191Z,-4.85
2019-01-06T01:34:25.396Z,-4.66
2019-01-06T01:39:46.929Z,-4.64
2019-01-06T01:44:55.160Z,-4.99
2019-01-06T01:50:13.636Z,-4.68
2019-01-06T01:55:25.449Z,-4.72
2019-01-06T02:00:46.987Z,-4.61
2019-01-06T02:06:12.325Z,-4.73
2019-01-06T02:11:44.399Z,-4.70
2019-01-06T02:17:09.525Z,-4.66
2019-01-06T02:22:28.228Z,-5.01
2019-01-06T02:27:40.584Z,-4.91
2019-01-06T02:33:02.886Z,-5.04
2019-01-06T02:38:22.394Z,-4.93
2019-01-06T02:43:41.000Z,-4.78
2019-01-06T02:49:02.144Z,-5.16
2019-01-06T02:54:26.991Z,-5.02
2019-01-06T02:59:37.005Z,-4.93
2019-01-06T03:04:44.723Z,-5.14
2019-01-06T03:09:53.814Z,-5.14
2019-01-06T03:15:02.974Z,-5.02
2019-01-06T03:20:13.526Z,-5.33
2019-01-06T03:25:21.210Z,-5.14
2019-01-06T03:30:46.076Z,-5.18
2019-01-06T03:36:04.576Z,-5.05
2019-01-06T03:41:12.253Z,-5.33
2019-01-06T03:46:24.068Z,-4.89
2019-01-06T03:51:41.491Z,-5.22
2019-01-06T03:56:49.251Z,-4.95
2019-01-06T04:02:04.650Z,-5.08
2019-01-06T04:07:13.638Z,-5.11
2019-01-06T04:12:22.637Z,-4.97
2019-01-06T04:17:31.886Z,-5.05
2019-01-06T04:22:40.374Z,-5.34
2019-01-06T04:27:50.391Z,-5.17
2019-01-06T04:33:10.138Z,-4.91
2019-01-06T04:38:18.079Z,-4.67
2019-01-06T04:43:36.833Z,-4.45
2019-01-06T04:48:57.840Z,-4.64
2019-01-06T04:54:05.317Z,-4.65
2019-01-06T04:59:20.455Z,-4.50
2019-01-06T05:04:28.406Z,-4.31
2019-01-06T05:09:39.977Z,-4.66
2019-01-06T05:14:47.674Z,-4.45
2019-01-06T05:19:55.645Z,-4.67
2019-01-06T05:25:04.897Z,-4.55
2019-01-06T05:30:28.748Z,-4.60
2019-01-06T05:35:40.553Z,-4.48
2019-01-06T05:40:55.436Z,-4.73
2019-01-06T05:46:13.405Z,-4.79
2019-01-06T05:51:42.120Z,-4.70
2019-01-06T05:56:49.551Z,-4.57
2019-01-06T06:01:58.829Z,-4.38
2019-01-06T06:07:11.193Z,-4.29
2019-01-06T06:12:26.271Z,-4.10
2019-01-06T06:17:41.432Z,-3.92
2019-01-06T06:22:54.701Z,-3.75
2019-01-06T06:28:06.058Z,-3.51
2019-01-06T06:33:24.804Z,-3.39
2019-01-06T06:38:34.012Z,-3.39
2019-01-06T06:43:42.271Z,-2.82
2019-01-06T06:48:58.598Z,-2.16
2019-01-06T06:54:24.052Z,-1.82
2019-01-06T06:59:47.014Z,-2.24
2019-01-06T07:04:56.118Z,-2.58
2019-01-06T07:10:08.963Z,-2.69
2019-01-06T07:15:17.724Z,-2.52
2019-01-06T07:20:31.328Z,-3.00
2019-01-06T07:25:39.539Z,-3.51
2019-01-06T07:31:07.475Z,-3.00
2019-01-06T07:36:26.472Z,0.71
2019-01-06T07:41:34.089Z,-1.54
2019-01-06T07:46:53.880Z,-0.95
2019-01-06T07:52:08.025Z,-0.50
2019-01-06T07:57:26.237Z,-0.01
2019-01-06T08:02:48.060Z,0.00
2019-01-06T08:07:55.756Z,0.22
2019-01-06T08:13:21.133Z,0.48
2019-01-06T08:18:30.125Z,0.55
2019-01-06T08:24:11.534Z,0.04
2019-01-06T08:29:42.554Z,0.04
2019-01-06T08:35:04.193Z,0.12
2019-01-06T08:40:16.766Z,0.29
2019-01-06T08:45:24.229Z,-0.02
2019-01-06T08:50:39.888Z,-0.18
2019-01-06T08:55:47.335Z,0.17
2019-01-06T09:00:55.566Z,0.12
2019-01-06T09:06:04.581Z,0.37
2019-01-06T09:11:17.424Z,0.37
2019-01-06T09:16:25.908Z,1.10
2019-01-06T09:21:33.101Z,1.17
2019-01-06T09:26:57.434Z,0.61
2019-01-06T09:32:20.281Z,0.92
2019-01-06T09:37:28.223Z,0.84
2019-01-06T09:42:44.254Z,0.84
2019-01-06T09:47:56.224Z,1.05
2019-01-06T09:53:11.105Z,1.22
2019-01-06T09:58:22.912Z,0.83
2019-01-06T10:03:31.880Z,1.09
2019-01-06T10:08:58.644Z,1.09
2019-01-06T10:14:14.704Z,1.55
2019-01-06T10:19:30.888Z,2.07
2019-01-06T10:24:38.071Z,2.00
2019-01-06T10:30:17.559Z,2.27
2019-01-06T10:35:57.050Z,2.63
2019-01-06T10:41:25.344Z,3.13
2019-01-06T10:46:56.967Z,2.82
2019-01-06T10:52:44.998Z,2.36
2019-01-06T10:58:25.076Z,2.11
2019-01-06T11:04:16.538Z,2.17
2019-01-06T11:09:57.302Z,2.09
2019-01-06T11:15:27.710Z,2.05
2019-01-06T11:21:10.360Z,2.35
2019-01-06T11:26:37.045Z,1.90
2019-01-06T11:32:27.439Z,2.05
2019-01-06T11:38:11.969Z,1.81
2019-01-06T11:43:40.419Z,1.51
2019-01-06T11:55:15.542Z,2.08
2019-01-06T12:00:57.538Z,1.94
2019-01-06T12:06:31.880Z,1.64
2019-01-06T12:12:06.674Z,1.38
2019-01-06T12:17:47.979Z,1.79
2019-01-06T12:23:21.292Z,1.75
2019-01-06T12:28:54.107Z,1.80
2019-01-06T12:34:39.362Z,1.31
2019-01-06T12:40:30.758Z,1.31
2019-01-06T12:46:12.549Z,1.39
2019-01-06T12:52:01.779Z,1.25
2019-01-06T13:25:22.132Z,1.18
2019-01-06T13:30:30.557Z,1.18
2019-01-06T13:36:01.862Z,1.16
2019-01-06T13:41:44.141Z,1.17
2019-01-06T13:47:17.440Z,1.10
2019-01-06T13:52:54.865Z,0.87
2019-01-06T13:58:21.533Z,0.82
2019-01-06T14:04:02.950Z,0.71
2019-01-06T14:09:23.197Z,0.71
2019-01-06T14:14:45.582Z,0.33
2019-01-06T14:20:06.785Z,0.33
2019-01-06T14:25:24.187Z,0.49
2019-01-06T14:30:50.992Z,0.31
2019-01-06T14:55:21.022Z,-0.08
2019-01-06T15:00:52.661Z,-0.02
2019-01-06T15:06:50.214Z,0.01
2019-01-06T15:12:22.022Z,-0.21
2019-01-06T15:17:57.240Z,0.40
2019-01-06T15:23:24.347Z,0.22
2019-01-06T15:28:47.774Z,0.09
2019-01-06T15:34:18.014Z,0.24
2019-01-06T15:39:37.248Z,0.17
2019-01-06T15:44:57.038Z,0.12
2019-01-06T15:50:28.515Z,-0.05
2019-01-06T15:55:57.165Z,0.10
2019-01-06T16:01:35.935Z,0.24
2019-01-06T16:07:02.939Z,-0.01
2019-01-06T16:12:41.897Z,0.07
2019-01-06T16:18:23.136Z,0.07
2019-01-06T16:24:13.639Z,-0.19
2019-01-06T16:29:58.378Z,-0.19
2019-01-06T16:35:32.341Z,-0.34
2019-01-06T16:41:04.531Z,-0.38
2019-01-06T16:46:52.462Z,-0.29
2019-01-06T16:52:29.873Z,-0.77
2019-01-06T16:58:12.583Z,-0.58
2019-01-06T17:04:00.650Z,-0.69
2019-01-06T17:09:36.722Z,-0.51
2019-01-06T17:15:04.422Z,-0.67
2019-01-06T17:20:43.377Z,-0.78
2019-01-06T17:26:12.520Z,-0.76
2019-01-06T17:31:42.061Z,-0.62
2019-01-06T17:37:10.303Z,-0.63
2019-01-06T17:42:48.831Z,-0.71
2019-01-06T17:48:17.933Z,-0.82
2019-01-06T17:53:47.360Z,-0.95
2019-01-06T17:59:18.484Z,-0.80
2019-01-06T18:04:50.416Z,-0.36
2019-01-06T18:10:22.705Z,-0.46
2019-01-06T18:15:57.928Z,-0.59
2019-01-06T18:21:27.506Z,-0.69
2019-01-06T18:27:07.715Z,-1.02
2019-01-06T18:32:39.199Z,-1.38
2019-01-06T18:38:20.304Z,-1.21
2019-01-06T18:44:00.017Z,-1.19
2019-01-06T18:49:50.640Z,-1.51
2019-01-06T18:55:25.999Z,-1.59
2019-01-06T19:01:05.852Z,-1.35
2019-01-06T19:06:46.581Z,-1.46
2019-01-06T19:12:20.592Z,-1.42
2019-01-06T19:18:15.705Z,-1.35
2019-01-06T19:23:44.222Z,-1.70
2019-01-06T19:29:29.386Z,-1.42
2019-01-06T19:34:54.436Z,-1.82
2019-01-06T19:40:41.412Z,-1.76
2019-01-06T19:46:09.574Z,-1.62
2019-01-06T19:51:53.638Z,-1.72
2019-01-06T19:57:20.342Z,-1.73
2019-01-06T20:03:09.170Z,-1.73
2019-01-06T20:08:51.496Z,-1.95
2019-01-06T20:14:30.303Z,-1.96
2019-01-06T20:20:14.523Z,-2.23
2019-01-06T20:25:37.626Z,-2.19
2019-01-06T20:30:51.477Z,-2.56
2019-01-06T20:36:29.410Z,-2.45
2019-01-06T20:42:06.804Z,-2.39
2019-01-06T20:47:32.999Z,-2.65
2019-01-06T20:52:42.140Z,-2.27
2019-01-06T20:58:04.731Z,-2.55
2019-01-06T21:03:40.599Z,-2.67
2019-01-06T21:08:57.758Z,-2.27
2019-01-06T21:14:30.143Z,-2.43
2019-01-06T21:19:57.866Z,-2.45
2019-01-06T21:25:33.415Z,-2.23
2019-01-06T21:30:44.461Z,-2.37
2019-01-06T21:35:52.431Z,-2.39
2019-01-06T21:41:06.317Z,-2.39
2019-01-06T21:46:30.493Z,-2.62
2019-01-06T21:51:56.029Z,-2.46
2019-01-06T21:57:07.332Z,-2.26
2019-01-06T22:02:38.537Z,-2.32
2019-01-06T22:07:47.328Z,-2.62
2019-01-06T22:13:02.727Z,-2.37
2019-01-06T22:18:24.028Z,-2.32
2019-01-06T22:23:52.735Z,-2.39
2019-01-06T22:29:04.018Z,-2.47
2019-01-06T22:34:12.525Z,-2.50
2019-01-06T22:39:33.499Z,-2.53
2019-01-06T22:44:49.455Z,-2.58
2019-01-06T22:50:01.757Z,-2.37
2019-01-06T22:55:09.215Z,-2.30
2019-01-06T23:00:20.769Z,-2.66
2019-01-06T23:05:49.217Z,-2.79
2019-01-06T23:10:51.377Z,-3.03
2019-01-06T23:16:09.777Z,-2.67
2019-01-06T23:21:19.810Z,-2.62
2019-01-06T23:26:35.793Z,-2.57
2019-01-06T23:31:50.847Z,-2.19
2019-01-06T23:37:02.388Z,-2.42
2019-01-06T23:42:12.178Z,-2.64
2019-01-06T23:47:32.078Z,-2.57
2019-01-06T23:52:50.631Z,-2.79
2019-01-06T23:58:21.327Z,-2.78
